sensor_id;sensor_type;location;lat;lon;timestamp;pressure;altitude;pressure_sealevel;temperature;humidity
21706;BME280;11014;53.076;18.208;2023-02-19T00:00:14;100816.13;;;6.80;70.02
21706;BME280;11014;53.076;18.208;2023-02-19T00:03:03;100807.06;;;6.81;69.58
21706;BME280;11014;53.076;18.208;2023-02-19T00:05:34;100823.72;;;6.83;69.77
21706;BME280;11014;53.076;18.208;2023-02-19T00:08:02;100811.22;;;6.90;69.49
21706;BME280;11014;53.076;18.208;2023-02-19T00:10:31;100828.47;;;6.94;69.23
21706;BME280;11014;53.076;18.208;2023-02-19T00:12:59;100825.19;;;6.92;69.83
21706;BME280;11014;53.076;18.208;2023-02-19T00:15:31;100822.75;;;7.04;69.29
21706;BME280;11014;53.076;18.208;2023-02-19T00:18:00;100823.13;;;6.94;69.49
21706;BME280;11014;53.076;18.208;2023-02-19T00:20:29;100830.56;;;7.05;69.34
21706;BME280;11014;53.076;18.208;2023-02-19T00:22:57;100824.81;;;7.08;69.60
21706;BME280;11014;53.076;18.208;2023-02-19T00:25:25;100820.91;;;7.11;69.29
21706;BME280;11014;53.076;18.208;2023-02-19T00:27:54;100820.72;;;7.12;69.25
21706;BME280;11014;53.076;18.208;2023-02-19T00:30:27;100831.00;;;7.15;69.42
21706;BME280;11014;53.076;18.208;2023-02-19T00:32:55;100828.09;;;7.10;69.63
21706;BME280;11014;53.076;18.208;2023-02-19T00:35:24;100831.81;;;7.23;69.60
21706;BME280;11014;53.076;18.208;2023-02-19T00:37:52;100839.22;;;7.21;69.41
21706;BME280;11014;53.076;18.208;2023-02-19T00:40:21;100834.25;;;7.04;69.96
21706;BME280;11014;53.076;18.208;2023-02-19T00:42:50;100832.63;;;7.16;69.90
21706;BME280;11014;53.076;18.208;2023-02-19T00:45:19;100833.88;;;7.21;69.53
21706;BME280;11014;53.076;18.208;2023-02-19T00:47:48;100828.50;;;7.14;69.89
21706;BME280;11014;53.076;18.208;2023-02-19T00:50:16;100829.38;;;7.21;69.59
21706;BME280;11014;53.076;18.208;2023-02-19T00:52:45;100831.59;;;7.11;69.77
21706;BME280;11014;53.076;18.208;2023-02-19T00:55:14;100825.66;;;7.15;69.48
21706;BME280;11014;53.076;18.208;2023-02-19T00:57:43;100826.06;;;7.12;69.69
21706;BME280;11014;53.076;18.208;2023-02-19T01:00:11;100827.09;;;7.18;69.59
21706;BME280;11014;53.076;18.208;2023-02-19T01:02:40;100821.50;;;7.00;69.62
21706;BME280;11014;53.076;18.208;2023-02-19T01:05:09;100820.53;;;7.21;69.70
21706;BME280;11014;53.076;18.208;2023-02-19T01:07:38;100823.19;;;7.07;69.85
21706;BME280;11014;53.076;18.208;2023-02-19T01:10:08;100814.97;;;7.29;69.15
21706;BME280;11014;53.076;18.208;2023-02-19T01:12:36;100812.31;;;7.29;69.05
21706;BME280;11014;53.076;18.208;2023-02-19T01:15:05;100808.41;;;7.31;68.95
21706;BME280;11014;53.076;18.208;2023-02-19T01:17:35;100814.56;;;7.32;68.63
21706;BME280;11014;53.076;18.208;2023-02-19T01:20:04;100813.75;;;7.31;68.67
21706;BME280;11014;53.076;18.208;2023-02-19T01:22:32;100812.94;;;7.37;69.05
21706;BME280;11014;53.076;18.208;2023-02-19T01:25:01;100807.16;;;7.34;69.10
21706;BME280;11014;53.076;18.208;2023-02-19T01:27:30;100807.16;;;7.34;68.95
21706;BME280;11014;53.076;18.208;2023-02-19T01:29:58;100803.47;;;7.41;68.76
21706;BME280;11014;53.076;18.208;2023-02-19T01:32:27;100814.97;;;7.42;68.34
21706;BME280;11014;53.076;18.208;2023-02-19T01:34:55;100809.84;;;7.53;68.29
21706;BME280;11014;53.076;18.208;2023-02-19T01:37:24;100805.31;;;7.34;68.62
21706;BME280;11014;53.076;18.208;2023-02-19T01:39:52;100814.16;;;7.35;68.38
21706;BME280;11014;53.076;18.208;2023-02-19T01:42:21;100811.06;;;7.31;68.31
21706;BME280;11014;53.076;18.208;2023-02-19T01:47:19;100810.44;;;7.36;68.41
21706;BME280;11014;53.076;18.208;2023-02-19T01:49:54;100809.84;;;7.34;68.27
21706;BME280;11014;53.076;18.208;2023-02-19T01:52:31;100811.66;;;7.13;69.02
21706;BME280;11014;53.076;18.208;2023-02-19T01:55:03;100818.88;;;7.20;68.82
21706;BME280;11014;53.076;18.208;2023-02-19T01:57:40;100821.13;;;7.36;68.98
21706;BME280;11014;53.076;18.208;2023-02-19T02:00:13;100813.31;;;7.41;68.52
21706;BME280;11014;53.076;18.208;2023-02-19T02:02:47;100808.41;;;7.51;68.11
21706;BME280;11014;53.076;18.208;2023-02-19T02:05:24;100810.84;;;7.65;67.44
21706;BME280;11014;53.076;18.208;2023-02-19T02:08:02;100807.81;;;7.62;67.24
21706;BME280;11014;53.076;18.208;2023-02-19T02:10:50;100805.94;;;7.69;67.27
21706;BME280;11014;53.076;18.208;2023-02-19T02:13:19;100802.47;;;7.62;67.33
21706;BME280;11014;53.076;18.208;2023-02-19T02:16:16;100798.50;;;7.71;67.12
21706;BME280;11014;53.076;18.208;2023-02-19T02:19:00;100791.13;;;7.73;67.06
21706;BME280;11014;53.076;18.208;2023-02-19T02:21:51;100784.13;;;7.79;66.81
21706;BME280;11014;53.076;18.208;2023-02-19T02:24:48;100793.59;;;7.68;66.80
21706;BME280;11014;53.076;18.208;2023-02-19T02:30:35;100775.09;;;7.47;67.15
21706;BME280;11014;53.076;18.208;2023-02-19T02:38:29;100761.53;;;7.55;66.93
21706;BME280;11014;53.076;18.208;2023-02-19T02:40:58;100764.81;;;7.57;66.60
21706;BME280;11014;53.076;18.208;2023-02-19T02:43:28;100756.19;;;7.61;66.16
21706;BME280;11014;53.076;18.208;2023-02-19T02:45:57;100753.28;;;7.63;65.96
21706;BME280;11014;53.076;18.208;2023-02-19T02:49:02;100749.56;;;7.70;65.58
21706;BME280;11014;53.076;18.208;2023-02-19T02:51:37;100746.91;;;7.64;65.50
21706;BME280;11014;53.076;18.208;2023-02-19T02:54:19;100748.78;;;7.50;65.57
21706;BME280;11014;53.076;18.208;2023-02-19T02:57:11;100749.81;;;7.56;65.23
21706;BME280;11014;53.076;18.208;2023-02-19T02:59:52;100741.38;;;7.59;64.95
21706;BME280;11014;53.076;18.208;2023-02-19T03:02:24;100743.03;;;7.47;64.74
21706;BME280;11014;53.076;18.208;2023-02-19T03:05:01;100740.16;;;7.42;64.76
21706;BME280;11014;53.076;18.208;2023-02-19T03:10:51;100734.41;;;7.32;65.05
21706;BME280;11014;53.076;18.208;2023-02-19T03:13:31;100736.44;;;7.30;65.01
21706;BME280;11014;53.076;18.208;2023-02-19T03:16:27;100734.41;;;7.32;65.02
21706;BME280;11014;53.076;18.208;2023-02-19T03:19:16;100733.59;;;7.31;65.14
21706;BME280;11014;53.076;18.208;2023-02-19T03:22:16;100741.41;;;7.26;65.53
21706;BME280;11014;53.076;18.208;2023-02-19T03:24:52;100735.03;;;7.21;65.58
21706;BME280;11014;53.076;18.208;2023-02-19T03:27:41;100725.38;;;7.20;66.09
21706;BME280;11014;53.076;18.208;2023-02-19T03:30:16;100726.19;;;7.20;66.11
21706;BME280;11014;53.076;18.208;2023-02-19T03:35:41;100740.38;;;7.07;66.94
21706;BME280;11014;53.076;18.208;2023-02-19T03:38:24;100732.75;;;7.11;66.96
21706;BME280;11014;53.076;18.208;2023-02-19T03:40:59;100742.63;;;7.10;66.85
21706;BME280;11014;53.076;18.208;2023-02-19T03:43:43;100730.91;;;7.11;67.30
21706;BME280;11014;53.076;18.208;2023-02-19T03:46:30;100742.00;;;6.95;67.37
21706;BME280;11014;53.076;18.208;2023-02-19T03:49:12;100738.94;;;6.98;67.63
21706;BME280;11014;53.076;18.208;2023-02-19T03:51:53;100733.38;;;7.06;67.62
21706;BME280;11014;53.076;18.208;2023-02-19T03:57:54;100725.13;;;6.69;68.68
21706;BME280;11014;53.076;18.208;2023-02-19T04:00:38;100723.28;;;6.89;67.72
21706;BME280;11014;53.076;18.208;2023-02-19T04:06:04;100722.88;;;6.92;67.69
21706;BME280;11014;53.076;18.208;2023-02-19T04:08:36;100724.97;;;6.96;67.31
21706;BME280;11014;53.076;18.208;2023-02-19T04:11:08;100732.56;;;6.93;67.68
21706;BME280;11014;53.076;18.208;2023-02-19T04:13:45;100724.75;;;6.85;67.71
21706;BME280;11014;53.076;18.208;2023-02-19T04:16:20;100723.28;;;6.89;67.61
21706;BME280;11014;53.076;18.208;2023-02-19T04:18:52;100720.84;;;6.94;67.47
21706;BME280;11014;53.076;18.208;2023-02-19T04:21:22;100719.63;;;6.96;67.29
21706;BME280;11014;53.076;18.208;2023-02-19T04:23:51;100720.84;;;6.87;67.38
21706;BME280;11014;53.076;18.208;2023-02-19T04:26:20;100716.31;;;6.94;67.04
21706;BME280;11014;53.076;18.208;2023-02-19T04:28:50;100719.63;;;6.96;67.02
21706;BME280;11014;53.076;18.208;2023-02-19T04:31:19;100730.06;;;6.91;66.75
21706;BME280;11014;53.076;18.208;2023-02-19T04:33:47;100722.69;;;6.80;67.14
21706;BME280;11014;53.076;18.208;2023-02-19T04:36:16;100726.38;;;6.92;67.08
21706;BME280;11014;53.076;18.208;2023-02-19T04:38:44;100723.91;;;6.97;66.79
21706;BME280;11014;53.076;18.208;2023-02-19T04:41:13;100720.03;;;6.93;66.75
21706;BME280;11014;53.076;18.208;2023-02-19T04:43:41;100729.88;;;6.93;66.68
21706;BME280;11014;53.076;18.208;2023-02-19T04:46:10;100725.97;;;6.95;66.69
21706;BME280;11014;53.076;18.208;2023-02-19T04:48:38;100730.72;;;6.93;66.65
21706;BME280;11014;53.076;18.208;2023-02-19T04:51:08;100726.19;;;6.94;66.56
21706;BME280;11014;53.076;18.208;2023-02-19T04:53:37;100738.72;;;6.93;66.28
21706;BME280;11014;53.076;18.208;2023-02-19T04:56:12;100739.31;;;6.95;66.29
21706;BME280;11014;53.076;18.208;2023-02-19T04:58:41;100731.94;;;6.91;66.50
21706;BME280;11014;53.076;18.208;2023-02-19T05:01:10;100737.25;;;6.84;66.57
21706;BME280;11014;53.076;18.208;2023-02-19T05:03:39;100739.72;;;6.79;66.65
21706;BME280;11014;53.076;18.208;2023-02-19T05:06:12;100744.22;;;6.72;67.24
21706;BME280;11014;53.076;18.208;2023-02-19T05:08:41;100746.25;;;6.70;67.33
21706;BME280;11014;53.076;18.208;2023-02-19T05:11:11;100746.66;;;6.67;67.33
21706;BME280;11014;53.076;18.208;2023-02-19T05:13:40;100738.28;;;6.77;67.07
21706;BME280;11014;53.076;18.208;2023-02-19T05:16:12;100740.13;;;6.76;67.46
21706;BME280;11014;53.076;18.208;2023-02-19T05:18:44;100742.16;;;6.68;67.64
21706;BME280;11014;53.076;18.208;2023-02-19T05:21:14;100745.84;;;6.60;68.16
21706;BME280;11014;53.076;18.208;2023-02-19T05:23:42;100741.28;;;6.54;68.49
21706;BME280;11014;53.076;18.208;2023-02-19T05:26:18;100741.13;;;6.62;68.46
21706;BME280;11014;53.076;18.208;2023-02-19T05:28:49;100730.06;;;6.72;68.06
21706;BME280;11014;53.076;18.208;2023-02-19T05:31:18;100739.25;;;6.56;68.34
21706;BME280;11014;53.076;18.208;2023-02-19T05:33:48;100730.47;;;6.69;67.96
21706;BME280;11014;53.076;18.208;2023-02-19T05:36:20;100736.38;;;6.64;68.42
21706;BME280;11014;53.076;18.208;2023-02-19T05:38:53;100742.88;;;6.35;68.64
21706;BME280;11014;53.076;18.208;2023-02-19T05:41:27;100735.56;;;6.57;68.57
21706;BME280;11014;53.076;18.208;2023-02-19T05:43:56;100739.88;;;6.58;68.50
21706;BME280;11014;53.076;18.208;2023-02-19T05:46:27;100743.78;;;6.55;68.23
21706;BME280;11014;53.076;18.208;2023-02-19T05:48:58;100746.25;;;6.57;68.46
21706;BME280;11014;53.076;18.208;2023-02-19T05:51:27;100751.94;;;6.41;68.91
21706;BME280;11014;53.076;18.208;2023-02-19T05:53:56;100752.78;;;6.48;68.95
21706;BME280;11014;53.076;18.208;2023-02-19T05:56:36;100747.91;;;6.58;68.83
21706;BME280;11014;53.076;18.208;2023-02-19T05:59:13;100748.09;;;6.63;68.29
21706;BME280;11014;53.076;18.208;2023-02-19T06:01:43;100754.66;;;6.67;68.21
21706;BME280;11014;53.076;18.208;2023-02-19T06:04:12;100759.22;;;6.73;67.82
21706;BME280;11014;53.076;18.208;2023-02-19T06:06:41;100752.44;;;6.71;67.97
21706;BME280;11014;53.076;18.208;2023-02-19T06:09:09;100761.81;;;6.53;67.92
21706;BME280;11014;53.076;18.208;2023-02-19T06:11:39;100758.38;;;6.66;68.08
21706;BME280;11014;53.076;18.208;2023-02-19T06:14:07;100760.41;;;6.57;67.88
21706;BME280;11014;53.076;18.208;2023-02-19T06:16:38;100760.00;;;6.67;67.98
21706;BME280;11014;53.076;18.208;2023-02-19T06:19:06;100769.28;;;6.71;67.86
21706;BME280;11014;53.076;18.208;2023-02-19T06:21:35;100771.75;;;6.79;67.33
21706;BME280;11014;53.076;18.208;2023-02-19T06:24:07;100774.22;;;6.81;67.05
21706;BME280;11014;53.076;18.208;2023-02-19T06:26:37;100769.28;;;6.78;67.06
21706;BME280;11014;53.076;18.208;2023-02-19T06:29:05;100772.16;;;6.76;67.38
21706;BME280;11014;53.076;18.208;2023-02-19T06:31:34;100764.97;;;6.83;66.93
21706;BME280;11014;53.076;18.208;2023-02-19T06:34:03;100773.41;;;6.87;66.85
21706;BME280;11014;53.076;18.208;2023-02-19T06:36:32;100777.50;;;6.89;66.83
21706;BME280;11014;53.076;18.208;2023-02-19T06:39:03;100777.31;;;6.84;66.76
21706;BME280;11014;53.076;18.208;2023-02-19T06:41:32;100782.84;;;6.89;66.91
21706;BME280;11014;53.076;18.208;2023-02-19T06:44:00;100781.22;;;6.88;67.00
21706;BME280;11014;53.076;18.208;2023-02-19T06:46:29;100775.03;;;6.81;66.87
21706;BME280;11014;53.076;18.208;2023-02-19T06:48:58;100786.56;;;6.88;67.05
21706;BME280;11014;53.076;18.208;2023-02-19T06:51:26;100784.31;;;6.85;67.03
21706;BME280;11014;53.076;18.208;2023-02-19T06:53:57;100781.22;;;6.88;66.88
21706;BME280;11014;53.076;18.208;2023-02-19T06:58:57;100793.94;;;6.86;66.95
21706;BME280;11014;53.076;18.208;2023-02-19T07:01:28;100790.69;;;6.97;66.89
21706;BME280;11014;53.076;18.208;2023-02-19T07:03:57;100800.53;;;6.90;67.03
21706;BME280;11014;53.076;18.208;2023-02-19T07:06:28;100798.47;;;6.92;66.88
21706;BME280;11014;53.076;18.208;2023-02-19T07:08:58;100803.03;;;6.98;67.17
21706;BME280;11014;53.076;18.208;2023-02-19T07:11:29;100804.25;;;7.09;66.90
21706;BME280;11014;53.076;18.208;2023-02-19T07:14:00;100800.16;;;7.20;66.69
21706;BME280;11014;53.076;18.208;2023-02-19T07:16:29;100797.50;;;7.13;66.65
21706;BME280;11014;53.076;18.208;2023-02-19T07:18:59;100809.81;;;7.07;66.64
21706;BME280;11014;53.076;18.208;2023-02-19T07:21:28;100815.81;;;7.29;66.32
21706;BME280;11014;53.076;18.208;2023-02-19T07:23:57;100814.16;;;7.35;66.36
21706;BME280;11014;53.076;18.208;2023-02-19T07:26:25;100812.72;;;7.32;65.91
21706;BME280;11014;53.076;18.208;2023-02-19T07:28:54;100809.84;;;7.34;65.96
21706;BME280;11014;53.076;18.208;2023-02-19T07:31:23;100812.09;;;7.37;65.82
21706;BME280;11014;53.076;18.208;2023-02-19T07:33:52;100808.00;;;7.34;65.88
21706;BME280;11014;53.076;18.208;2023-02-19T07:36:22;100816.63;;;7.36;65.99
21706;BME280;11014;53.076;18.208;2023-02-19T07:38:55;100808.81;;;7.48;65.80
21706;BME280;11014;53.076;18.208;2023-02-19T07:41:25;100814.38;;;7.53;65.69
21706;BME280;11014;53.076;18.208;2023-02-19T07:43:57;100829.16;;;7.49;65.37
21706;BME280;11014;53.076;18.208;2023-02-19T07:46:26;100824.88;;;7.48;65.58
21706;BME280;11014;53.076;18.208;2023-02-19T07:48:55;100820.13;;;7.56;64.97
21706;BME280;11014;53.076;18.208;2023-02-19T07:51:23;100825.28;;;7.64;64.88
21706;BME280;11014;53.076;18.208;2023-02-19T07:53:52;100826.09;;;7.78;64.86
21706;BME280;11014;53.076;18.208;2023-02-19T07:56:23;100837.63;;;7.79;64.67
21706;BME280;11014;53.076;18.208;2023-02-19T07:58:52;100839.66;;;7.70;64.59
21706;BME280;11014;53.076;18.208;2023-02-19T08:01:22;100834.72;;;7.67;64.41
21706;BME280;11014;53.076;18.208;2023-02-19T08:04:13;100844.19;;;7.83;64.25
21706;BME280;11014;53.076;18.208;2023-02-19T08:06:43;100841.28;;;7.84;64.44
21706;BME280;11014;53.076;18.208;2023-02-19T08:09:11;100857.31;;;7.84;64.19
21706;BME280;11014;53.076;18.208;2023-02-19T08:11:40;100849.53;;;7.76;64.12
21706;BME280;11014;53.076;18.208;2023-02-19T08:14:27;100857.94;;;7.93;63.78
21706;BME280;11014;53.076;18.208;2023-02-19T08:16:55;100851.19;;;7.77;64.37
21706;BME280;11014;53.076;18.208;2023-02-19T08:19:24;100859.19;;;7.77;64.29
21706;BME280;11014;53.076;18.208;2023-02-19T08:21:53;100858.34;;;7.96;63.94
21706;BME280;11014;53.076;18.208;2023-02-19T08:24:21;100860.22;;;7.89;63.75
21706;BME280;11014;53.076;18.208;2023-02-19T08:26:50;100867.81;;;7.99;63.50
21706;BME280;11014;53.076;18.208;2023-02-19T08:49:40;100898.06;;;8.19;63.24
21706;BME280;11014;53.076;18.208;2023-02-19T08:52:09;100899.31;;;8.16;63.00
21706;BME280;11014;53.076;18.208;2023-02-19T08:54:38;100900.53;;;8.33;62.65
21706;BME280;11014;53.076;18.208;2023-02-19T08:57:06;100901.34;;;8.34;62.38
21706;BME280;11014;53.076;18.208;2023-02-19T08:59:35;100900.06;;;8.50;61.80
21706;BME280;11014;53.076;18.208;2023-02-19T09:02:03;100900.91;;;8.50;61.07
21706;BME280;11014;53.076;18.208;2023-02-19T09:04:32;100911.59;;;8.57;61.22
21706;BME280;11014;53.076;18.208;2023-02-19T09:07:00;100908.91;;;8.57;61.25
21706;BME280;11014;53.076;18.208;2023-02-19T09:09:29;100917.31;;;8.67;60.94
21706;BME280;11014;53.076;18.208;2023-02-19T09:11:57;100916.13;;;8.56;60.49
21706;BME280;11014;53.076;18.208;2023-02-19T09:14:26;100907.84;;;8.71;59.92
21706;BME280;11014;53.076;18.208;2023-02-19T09:16:55;100920.16;;;8.85;59.41
21706;BME280;11014;53.076;18.208;2023-02-19T09:19:31;100925.47;;;8.98;59.48
21706;BME280;11014;53.076;18.208;2023-02-19T09:22:04;100921.72;;;9.06;59.08
21706;BME280;11014;53.076;18.208;2023-02-19T09:24:37;100922.38;;;8.94;57.95
21706;BME280;11014;53.076;18.208;2023-02-19T09:27:06;100915.59;;;8.92;57.91
21706;BME280;11014;53.076;18.208;2023-02-19T09:29:34;100919.97;;;8.80;57.94
21706;BME280;11014;53.076;18.208;2023-02-19T09:32:03;100923.22;;;8.88;57.86
21706;BME280;11014;53.076;18.208;2023-02-19T09:34:31;100925.44;;;9.05;57.74
21706;BME280;11014;53.076;18.208;2023-02-19T09:37:00;100928.09;;;9.11;57.08
21706;BME280;11014;53.076;18.208;2023-02-19T09:39:28;100932.75;;;9.29;56.75
21706;BME280;11014;53.076;18.208;2023-02-19T09:42:08;100929.06;;;9.23;56.22
21706;BME280;11014;53.076;18.208;2023-02-19T09:44:41;100929.41;;;9.33;56.03
21706;BME280;11014;53.076;18.208;2023-02-19T09:47:19;100941.41;;;9.24;54.96
21706;BME280;11014;53.076;18.208;2023-02-19T09:49:52;100929.94;;;9.48;55.05
21706;BME280;11014;53.076;18.208;2023-02-19T09:52:55;100946.84;;;9.49;54.55
21706;BME280;11014;53.076;18.208;2023-02-19T09:57:49;100946.66;;;9.50;54.52
21706;BME280;11014;53.076;18.208;2023-02-19T10:03:04;100955.63;;;9.63;54.01
21706;BME280;11014;53.076;18.208;2023-02-19T10:05:34;100961.75;;;9.38;53.68
21706;BME280;11014;53.076;18.208;2023-02-19T10:08:04;100963.34;;;9.52;53.13
21706;BME280;11014;53.076;18.208;2023-02-19T10:10:35;100966.44;;;9.49;52.10
21706;BME280;11014;53.076;18.208;2023-02-19T10:13:17;100966.38;;;9.63;51.70
21706;BME280;11014;53.076;18.208;2023-02-19T10:15:51;100966.63;;;9.54;51.65
21706;BME280;11014;53.076;18.208;2023-02-19T10:18:24;100975.47;;;9.62;52.31
21706;BME280;11014;53.076;18.208;2023-02-19T10:20:56;100968.63;;;9.66;52.05
21706;BME280;11014;53.076;18.208;2023-02-19T10:23:25;100978.16;;;9.62;51.90
21706;BME280;11014;53.076;18.208;2023-02-19T10:25:58;100975.00;;;9.65;52.02
21706;BME280;11014;53.076;18.208;2023-02-19T10:28:33;100987.72;;;9.44;51.58
21706;BME280;11014;53.076;18.208;2023-02-19T10:31:04;100972.00;;;9.54;51.36
21706;BME280;11014;53.076;18.208;2023-02-19T10:33:55;100976.06;;;9.64;51.98
21706;BME280;11014;53.076;18.208;2023-02-19T10:36:31;100992.34;;;9.62;50.93
21706;BME280;11014;53.076;18.208;2023-02-19T10:39:02;100987.00;;;9.62;50.42
21706;BME280;11014;53.076;18.208;2023-02-19T10:41:39;100985.97;;;9.63;49.88
21706;BME280;11014;53.076;18.208;2023-02-19T10:44:19;100992.66;;;9.79;49.20
21706;BME280;11014;53.076;18.208;2023-02-19T10:46:51;100985.47;;;9.73;49.39
21706;BME280;11014;53.076;18.208;2023-02-19T10:49:28;100996.91;;;9.93;48.30
21706;BME280;11014;53.076;18.208;2023-02-19T10:52:14;100991.78;;;9.91;46.57
21706;BME280;11014;53.076;18.208;2023-02-19T10:54:49;100984.03;;;9.77;45.43
21706;BME280;11014;53.076;18.208;2023-02-19T10:59:50;100989.81;;;10.05;46.62
21706;BME280;11014;53.076;18.208;2023-02-19T11:02:20;100987.50;;;10.08;47.11
21706;BME280;11014;53.076;18.208;2023-02-19T11:07:56;101004.09;;;9.99;45.89
21706;BME280;11014;53.076;18.208;2023-02-19T11:10:26;100995.00;;;10.00;44.67
21706;BME280;11014;53.076;18.208;2023-02-19T11:12:58;101001.25;;;9.94;44.33
21706;BME280;11014;53.076;18.208;2023-02-19T11:15:30;101004.38;;;9.91;43.73
21706;BME280;11014;53.076;18.208;2023-02-19T11:21:02;101010.34;;;10.24;42.84
21706;BME280;11014;53.076;18.208;2023-02-19T11:27:16;101010.66;;;10.59;43.21
21706;BME280;11014;53.076;18.208;2023-02-19T11:29:45;101003.19;;;10.61;43.52
21706;BME280;11014;53.076;18.208;2023-02-19T11:34:48;101020.31;;;10.66;42.24
21706;BME280;11014;53.076;18.208;2023-02-19T11:37:19;101031.28;;;10.65;42.55
21706;BME280;11014;53.076;18.208;2023-02-19T11:39:49;101027.09;;;10.69;42.33
21706;BME280;11014;53.076;18.208;2023-02-19T11:42:31;101029.13;;;10.74;42.03
21706;BME280;11014;53.076;18.208;2023-02-19T11:48:06;101031.22;;;10.71;41.94
21706;BME280;11014;53.076;18.208;2023-02-19T11:50:53;101046.28;;;10.73;41.52
21706;BME280;11014;53.076;18.208;2023-02-19T11:53:43;101031.22;;;10.71;41.62
21706;BME280;11014;53.076;18.208;2023-02-19T11:56:19;101042.66;;;10.60;41.51
21706;BME280;11014;53.076;18.208;2023-02-19T11:59:11;101033.03;;;10.96;40.94
21706;BME280;11014;53.076;18.208;2023-02-19T12:02:08;101038.41;;;12.51;38.55
21706;BME280;11014;53.076;18.208;2023-02-19T12:04:55;101044.31;;;13.57;35.94
21706;BME280;11014;53.076;18.208;2023-02-19T12:13:15;101037.75;;;14.93;32.43
21706;BME280;11014;53.076;18.208;2023-02-19T12:16:08;101041.22;;;15.49;31.00
21706;BME280;11014;53.076;18.208;2023-02-19T12:19:09;101047.50;;;15.76;31.53
21706;BME280;11014;53.076;18.208;2023-02-19T12:43:12;101068.38;;;17.49;25.74
21706;BME280;11014;53.076;18.208;2023-02-19T12:45:48;101078.53;;;17.12;25.68
21706;BME280;11014;53.076;18.208;2023-02-19T12:48:42;101074.06;;;16.96;26.78
21706;BME280;11014;53.076;18.208;2023-02-19T12:51:46;101071.34;;;16.91;26.59
21706;BME280;11014;53.076;18.208;2023-02-19T12:55:01;101075.47;;;16.67;27.25
21706;BME280;11014;53.076;18.208;2023-02-19T12:57:28;101077.50;;;16.81;26.85
21706;BME280;11014;53.076;18.208;2023-02-19T13:00:26;101084.25;;;16.79;26.92
21706;BME280;11014;53.076;18.208;2023-02-19T13:02:58;101094.91;;;16.85;26.17
21706;BME280;11014;53.076;18.208;2023-02-19T13:11:39;101105.22;;;15.00;28.51
21706;BME280;11014;53.076;18.208;2023-02-19T13:14:50;101110.78;;;15.31;28.36
21706;BME280;11014;53.076;18.208;2023-02-19T13:17:36;101106.53;;;14.97;28.28
21706;BME280;11014;53.076;18.208;2023-02-19T13:20:35;101104.63;;;14.48;28.50
21706;BME280;11014;53.076;18.208;2023-02-19T13:23:11;101110.97;;;13.85;29.39
21706;BME280;11014;53.076;18.208;2023-02-19T13:36:00;101124.31;;;14.93;28.22
21706;BME280;11014;53.076;18.208;2023-02-19T13:38:28;101112.63;;;15.09;28.36
21706;BME280;11014;53.076;18.208;2023-02-19T13:40:58;101114.31;;;14.77;28.91
21706;BME280;11014;53.076;18.208;2023-02-19T13:43:33;101146.53;;;14.34;29.13
21706;BME280;11014;53.076;18.208;2023-02-19T13:46:11;101122.09;;;14.29;29.16
21706;BME280;11014;53.076;18.208;2023-02-19T13:48:42;101125.72;;;14.06;29.64
21706;BME280;11014;53.076;18.208;2023-02-19T13:51:46;101117.09;;;13.41;29.58
21706;BME280;11014;53.076;18.208;2023-02-19T13:54:34;101121.91;;;13.16;30.13
21706;BME280;11014;53.076;18.208;2023-02-19T13:59:45;101130.38;;;12.55;30.60
21706;BME280;11014;53.076;18.208;2023-02-19T14:05:04;101134.84;;;12.61;31.18
21706;BME280;11014;53.076;18.208;2023-02-19T14:07:48;101138.75;;;12.99;30.88
21706;BME280;11014;53.076;18.208;2023-02-19T14:16:47;101148.31;;;13.88;29.64
21706;BME280;11014;53.076;18.208;2023-02-19T14:20:43;101154.72;;;14.39;29.57
21706;BME280;11014;53.076;18.208;2023-02-19T14:22:59;101162.41;;;14.75;28.38
21706;BME280;11014;53.076;18.208;2023-02-19T14:25:37;101169.88;;;15.01;28.26
21706;BME280;11014;53.076;18.208;2023-02-19T14:33:44;101182.66;;;15.22;27.07
21706;BME280;11014;53.076;18.208;2023-02-19T14:36:46;101180.75;;;14.73;26.99
21706;BME280;11014;53.076;18.208;2023-02-19T14:39:21;101189.34;;;14.70;27.15
21706;BME280;11014;53.076;18.208;2023-02-19T14:41:53;101203.25;;;14.62;27.36
21706;BME280;11014;53.076;18.208;2023-02-19T14:44:26;101202.72;;;14.32;27.29
21706;BME280;11014;53.076;18.208;2023-02-19T14:46:59;101190.03;;;13.69;28.69
21706;BME280;11014;53.076;18.208;2023-02-19T14:49:57;101211.19;;;12.84;28.65
21706;BME280;11014;53.076;18.208;2023-02-19T14:52:35;101200.88;;;12.22;29.05
21706;BME280;11014;53.076;18.208;2023-02-19T14:55:22;101207.78;;;12.00;29.97
21706;BME280;11014;53.076;18.208;2023-02-19T14:58:22;101206.31;;;11.85;29.80
21706;BME280;11014;53.076;18.208;2023-02-19T15:00:52;101209.09;;;11.54;30.18
21706;BME280;11014;53.076;18.208;2023-02-19T15:06:03;101230.00;;;10.78;31.16
21706;BME280;11014;53.076;18.208;2023-02-19T15:08:41;101226.22;;;10.86;32.17
21706;BME280;11014;53.076;18.208;2023-02-19T15:11:17;101230.41;;;10.82;32.30
21706;BME280;11014;53.076;18.208;2023-02-19T15:13:57;101238.66;;;10.49;33.51
21706;BME280;11014;53.076;18.208;2023-02-19T15:16:27;101236.03;;;10.36;33.91
21706;BME280;11014;53.076;18.208;2023-02-19T15:18:58;101249.59;;;9.90;34.12
21706;BME280;11014;53.076;18.208;2023-02-19T15:21:30;101243.38;;;9.96;33.75
21706;BME280;11014;53.076;18.208;2023-02-19T15:24:02;101251.50;;;9.70;33.67
21706;BME280;11014;53.076;18.208;2023-02-19T15:26:37;101245.31;;;9.69;34.32
21706;BME280;11014;53.076;18.208;2023-02-19T15:29:10;101263.06;;;9.64;34.00
21706;BME280;11014;53.076;18.208;2023-02-19T15:31:49;101274.19;;;9.74;33.94
21706;BME280;11014;53.076;18.208;2023-02-19T15:34:21;101268.84;;;9.61;33.42
21706;BME280;11014;53.076;18.208;2023-02-19T15:36:55;101278.31;;;9.57;33.70